Time;durP1;ratioP1;P1;durP2;ratioP2;P2;SDS_P1;SDS_P2;PMS_P1;PMS_P2;Temp;Humidity;BMP_temperature;BMP_pressure;BME280_temperature;BME280_humidity;BME280_pressure;Samples;Min_cycle;Max_cycle;Signal;HPM_P1;HPM_P2
2022/07/05 00:00:44;;;;;;;2.10;1.58;;;23.30;94.80;;;;;;5032337;28;20029;-72
2022/07/05 00:03:10;;;;;;;1.50;1.40;;;23.30;95.00;;;;;;5032469;28;20029;-72
2022/07/05 00:05:36;;;;;;;1.95;1.38;;;23.30;95.00;;;;;;5032063;28;20358;-72
2022/07/05 00:08:03;;;;;;;2.53;1.80;;;23.30;94.80;;;;;;5032638;28;20056;-72
2022/07/05 00:10:28;;;;;;;1.58;1.48;;;23.30;95.00;;;;;;5032579;28;20025;-72
2022/07/05 00:12:54;;;;;;;1.63;1.25;;;23.30;94.90;;;;;;5032356;28;20147;-73
2022/07/05 00:15:20;;;;;;;2.08;1.48;;;23.30;94.80;;;;;;5032385;28;20111;-72
2022/07/05 00:17:46;;;;;;;2.00;1.55;;;23.30;94.80;;;;;;5032167;28;20033;-73
2022/07/05 00:20:11;;;;;;;1.63;1.50;;;23.30;94.90;;;;;;5032395;28;20026;-73
2022/07/05 00:22:37;;;;;;;2.35;1.65;;;23.30;94.80;;;;;;5032201;28;20030;-73
2022/07/05 00:25:03;;;;;;;3.05;2.00;;;23.30;94.60;;;;;;5032817;28;20026;-73
2022/07/05 00:27:28;;;;;;;2.00;1.80;;;23.30;94.80;;;;;;5032035;28;20058;-73
2022/07/05 00:29:54;;;;;;;1.67;1.58;;;23.30;94.60;;;;;;5014408;28;20120;-73
2022/07/05 00:32:20;;;;;;;3.65;1.55;;;23.30;94.50;;;;;;5032713;28;20044;-73
2022/07/05 00:34:45;;;;;;;1.90;1.50;;;23.20;94.60;;;;;;5031803;28;20433;-73
2022/07/05 00:37:12;;;;;;;3.00;1.70;;;23.20;94.90;;;;;;5032220;28;20026;-73
2022/07/05 00:39:37;;;;;;;4.57;1.70;;;23.10;95.00;;;;;;5031982;28;20029;-72
2022/07/05 00:42:04;;;;;;;3.50;1.92;;;23.10;95.00;;;;;;5032521;28;20029;-72
2022/07/05 00:44:34;;;;;;;2.00;1.65;;;23.10;94.90;;;;;;5032304;28;20087;-73
2022/07/05 00:47:01;;;;;;;2.60;1.45;;;23.10;95.10;;;;;;5032140;28;20083;-74
2022/07/05 00:49:26;;;;;;;2.83;1.58;;;23.10;95.20;;;;;;5032328;28;20059;-74
2022/07/05 00:51:52;;;;;;;1.60;1.50;;;23.00;95.30;;;;;;5031920;28;20802;-73
2022/07/05 00:54:18;;;;;;;2.90;1.85;;;23.00;95.60;;;;;;5032052;28;20104;-73
2022/07/05 00:56:44;;;;;;;2.13;1.50;;;23.00;95.50;;;;;;5032129;28;20040;-73
2022/07/05 00:59:10;;;;;;;1.77;1.48;;;23.10;95.40;;;;;;5033223;28;20032;-73
2022/07/05 01:01:35;;;;;;;3.83;1.77;;;23.10;95.70;;;;;;5035412;28;20032;-73
2022/07/05 01:04:01;;;;;;;3.28;1.92;;;23.10;95.90;;;;;;5035780;28;20021;-73
2022/07/05 01:06:27;;;;;;;3.88;1.80;;;23.10;96.40;;;;;;5035643;28;20038;-73
2022/07/05 01:08:52;;;;;;;3.05;1.55;;;23.10;96.50;;;;;;5035314;28;20474;-73
2022/07/05 01:11:18;;;;;;;1.73;1.20;;;23.00;96.60;;;;;;5035263;28;20032;-73
2022/07/05 01:13:44;;;;;;;1.80;1.42;;;23.00;96.80;;;;;;5034951;28;20026;-73
2022/07/05 01:16:10;;;;;;;2.83;1.33;;;23.00;96.70;;;;;;5017779;28;20033;-73
2022/07/05 01:18:36;;;;;;;1.83;1.40;;;22.90;96.70;;;;;;5034859;28;20022;-72
2022/07/05 01:21:03;;;;;;;1.35;1.25;;;22.80;97.00;;;;;;5035209;28;20436;-72
2022/07/05 01:23:30;;;;;;;2.22;1.15;;;22.70;97.10;;;;;;5035017;28;20049;-73
2022/07/05 01:25:58;;;;;;;1.40;1.30;;;22.60;97.10;;;;;;5034902;28;20100;-73
2022/07/05 01:28:24;;;;;;;1.65;1.42;;;22.50;97.50;;;;;;5035229;28;20053;-73
2022/07/05 01:30:50;;;;;;;1.33;1.13;;;22.30;97.80;;;;;;5035075;28;20129;-73
2022/07/05 01:33:16;;;;;;;1.80;1.13;;;22.20;98.10;;;;;;5035275;28;20022;-73
2022/07/05 01:35:42;;;;;;;1.40;1.23;;;22.10;98.30;;;;;;5034827;28;20381;-73
2022/07/05 01:38:10;;;;;;;1.10;1.00;;;22.10;98.70;;;;;;5035011;28;20033;-73
2022/07/05 01:40:35;;;;;;;1.27;1.15;;;22.00;98.90;;;;;;5034746;28;20030;-73
2022/07/05 01:43:03;;;;;;;1.45;1.20;;;21.90;98.80;;;;;;5034916;28;20039;-72
2022/07/05 01:45:44;;;;;;;1.48;1.10;;;21.90;98.90;;;;;;5035225;28;20029;-75
2022/07/05 01:48:12;;;;;;;1.20;1.10;;;21.90;98.80;;;;;;5034990;28;20097;-74
2022/07/05 01:50:48;;;;;;;1.77;0.95;;;21.90;98.40;;;;;;5032285;28;20104;-74
2022/07/05 01:53:26;;;;;;;1.10;1.00;;;21.90;98.30;;;;;;5033581;28;20029;-72
2022/07/05 01:55:51;;;;;;;1.70;1.25;;;21.90;98.10;;;;;;5017504;28;20018;-72
2022/07/05 01:58:17;;;;;;;2.15;1.35;;;21.90;98.10;;;;;;5034590;28;20072;-73
2022/07/05 02:00:45;;;;;;;1.40;1.30;;;21.90;98.10;;;;;;5034097;28;20026;-74
2022/07/05 02:03:12;;;;;;;1.77;1.30;;;21.90;98.00;;;;;;5034650;28;20112;-73
2022/07/05 02:05:37;;;;;;;1.05;0.95;;;21.90;97.70;;;;;;5034222;28;20386;-73
2022/07/05 02:08:03;;;;;;;2.53;1.20;;;21.90;97.90;;;;;;5034102;28;20040;-73
2022/07/05 02:10:29;;;;;;;1.92;1.20;;;22.00;98.00;;;;;;5034373;28;20112;-73
2022/07/05 02:12:55;;;;;;;1.27;1.17;;;22.00;97.90;;;;;;5033854;28;20489;-72
2022/07/05 02:15:20;;;;;;;4.93;1.40;;;22.00;97.80;;;;;;5034468;28;20025;-73
2022/07/05 02:17:46;;;;;;;1.42;1.15;;;22.00;97.70;;;;;;5033997;28;20075;-72
2022/07/05 02:20:11;;;;;;;1.90;1.58;;;22.00;97.60;;;;;;5034309;28;20083;-74
2022/07/05 02:22:37;;;;;;;1.30;1.10;;;22.10;97.20;;;;;;5034071;28;20033;-74
2022/07/05 02:25:03;;;;;;;2.60;1.20;;;22.00;97.30;;;;;;5033864;28;20076;-73
2022/07/05 02:27:29;;;;;;;0.95;0.80;;;22.00;97.50;;;;;;5033847;28;20448;-73
2022/07/05 02:29:54;;;;;;;1.13;1.02;;;21.90;97.80;;;;;;5034170;28;20029;-72
2022/07/05 02:32:20;;;;;;;1.40;1.15;;;21.90;97.90;;;;;;5033886;28;20056;-73
2022/07/05 02:34:45;;;;;;;1.13;1.02;;;21.80;98.10;;;;;;5033641;28;20033;-73
2022/07/05 02:37:11;;;;;;;1.52;1.20;;;21.70;98.30;;;;;;5033690;28;20036;-73
2022/07/05 02:39:37;;;;;;;1.40;0.93;;;21.70;98.60;;;;;;5033960;28;20079;-73
2022/07/05 02:42:03;;;;;;;1.17;0.90;;;21.70;98.90;;;;;;5033351;28;20026;-72
2022/07/05 02:44:28;;;;;;;1.30;1.00;;;21.70;98.90;;;;;;5033790;28;20033;-73
2022/07/05 02:46:54;;;;;;;1.30;1.20;;;21.70;99.20;;;;;;5033335;28;20026;-73
2022/07/05 02:49:20;;;;;;;1.30;1.13;;;21.70;99.30;;;;;;5033426;28;20489;-73
2022/07/05 02:51:45;;;;;;;1.48;1.20;;;21.70;99.00;;;;;;5033288;28;20125;-72
2022/07/05 02:54:11;;;;;;;1.10;1.00;;;21.70;98.80;;;;;;5033610;28;20148;-73
2022/07/05 02:56:37;;;;;;;1.55;1.20;;;21.80;98.70;;;;;;5033858;28;20044;-72
2022/07/05 02:59:03;;;;;;;3.38;1.40;;;21.80;98.60;;;;;;5015455;28;20025;-73
2022/07/05 03:01:29;;;;;;;1.88;1.20;;;21.80;98.10;;;;;;5033565;28;20110;-73
2022/07/05 03:03:54;;;;;;;2.00;1.20;;;21.90;98.10;;;;;;5033393;28;20064;-73
2022/07/05 03:06:20;;;;;;;1.02;0.93;;;21.80;98.10;;;;;;5033772;28;20339;-73
2022/07/05 03:08:45;;;;;;;1.08;0.98;;;21.90;98.00;;;;;;5032845;28;20099;-72
2022/07/05 03:11:11;;;;;;;1.00;0.90;;;21.90;97.90;;;;;;5033125;28;20089;-73
2022/07/05 03:13:37;;;;;;;1.67;0.90;;;21.90;97.80;;;;;;5033284;28;20116;-73
2022/07/05 03:16:03;;;;;;;1.27;1.00;;;21.90;97.70;;;;;;5032852;28;20029;-73
2022/07/05 03:18:28;;;;;;;1.13;1.00;;;21.90;97.80;;;;;;5033102;28;20021;-73
2022/07/05 03:20:54;;;;;;;1.35;1.00;;;21.90;97.80;;;;;;5032679;28;20075;-72
2022/07/05 03:23:19;;;;;;;0.93;0.93;;;21.80;97.90;;;;;;5032654;28;20358;-73
2022/07/05 03:25:45;;;;;;;1.10;0.98;;;21.90;98.20;;;;;;5032719;28;20021;-73
2022/07/05 03:28:11;;;;;;;2.58;1.23;;;21.90;98.20;;;;;;5032083;28;20139;-75
2022/07/05 03:30:36;;;;;;;1.60;1.00;;;21.90;98.20;;;;;;5032387;28;20029;-73
2022/07/05 03:33:02;;;;;;;1.75;1.02;;;21.90;98.20;;;;;;5032718;28;20037;-73
2022/07/05 03:35:28;;;;;;;1.50;1.35;;;21.90;98.30;;;;;;5032971;28;20053;-73
2022/07/05 03:37:53;;;;;;;5.57;1.55;;;21.90;98.40;;;;;;5032585;28;20034;-73
2022/07/05 03:40:19;;;;;;;4.25;1.50;;;21.90;98.60;;;;;;5032786;28;20363;-73
2022/07/05 03:42:45;;;;;;;1.52;1.20;;;21.90;98.60;;;;;;5032763;28;20434;-73
2022/07/05 03:45:10;;;;;;;2.20;1.20;;;21.90;98.70;;;;;;5032324;28;20023;-73
2022/07/05 03:47:36;;;;;;;1.50;1.30;;;21.80;98.90;;;;;;5013053;28;20040;-73
2022/07/05 03:50:03;;;;;;;1.65;1.30;;;21.90;99.10;;;;;;5012377;28;20390;-73
2022/07/05 03:52:29;;;;;;;1.42;1.33;;;21.90;99.20;;;;;;5013114;28;20030;-73
2022/07/05 03:54:54;;;;;;;1.42;1.33;;;21.90;99.20;;;;;;5012920;28;20028;-73
2022/07/05 03:57:20;;;;;;;3.20;1.60;;;21.90;99.30;;;;;;5012920;28;20032;-74
2022/07/05 03:59:46;;;;;;;1.80;1.17;;;21.90;99.30;;;;;;5013021;28;20044;-73
2022/07/05 04:02:11;;;;;;;2.90;1.70;;;22.00;99.30;;;;;;5012485;28;20076;-73
2022/07/05 04:04:37;;;;;;;4.15;1.42;;;22.00;99.30;;;;;;5012807;28;20117;-73
2022/07/05 04:07:03;;;;;;;1.33;1.23;;;22.00;99.00;;;;;;5012216;28;20425;-73
2022/07/05 04:09:28;;;;;;;3.35;1.42;;;22.10;98.90;;;;;;5013203;28;20038;-73
2022/07/05 04:11:54;;;;;;;2.08;1.27;;;22.10;98.80;;;;;;5012437;28;20022;-72
2022/07/05 04:14:20;;;;;;;1.98;1.40;;;22.00;98.70;;;;;;5012600;28;20085;-73
2022/07/05 04:16:45;;;;;;;1.48;1.30;;;22.00;98.80;;;;;;5012794;28;20033;-73
2022/07/05 04:19:11;;;;;;;1.50;1.40;;;22.00;98.80;;;;;;5012432;28;20083;-72
2022/07/05 04:21:37;;;;;;;1.70;1.60;;;21.90;98.80;;;;;;5012493;28;20386;-73
2022/07/05 04:24:02;;;;;;;1.40;1.30;;;21.90;98.80;;;;;;5012325;28;20096;-73
2022/07/05 04:26:29;;;;;;;1.17;1.13;;;21.90;98.70;;;;;;5012462;28;20034;-73
2022/07/05 04:28:55;;;;;;;1.80;1.05;;;21.90;99.00;;;;;;4994782;28;20356;-73
2022/07/05 04:31:20;;;;;;;1.67;1.20;;;21.90;98.80;;;;;;5012901;28;20037;-73
2022/07/05 04:33:46;;;;;;;1.63;1.25;;;21.90;98.80;;;;;;5013084;28;20036;-74
2022/07/05 04:36:12;;;;;;;1.27;1.17;;;21.90;98.70;;;;;;5015946;28;20124;-74
2022/07/05 04:38:37;;;;;;;1.52;1.35;;;21.90;98.60;;;;;;5035392;28;20055;-73
2022/07/05 04:41:03;;;;;;;2.20;1.35;;;21.90;98.50;;;;;;5035646;28;20373;-73
2022/07/05 04:43:29;;;;;;;2.85;1.67;;;22.00;98.30;;;;;;5035741;28;20022;-73
2022/07/05 04:45:54;;;;;;;3.67;1.30;;;21.90;98.10;;;;;;5034039;28;20032;-73
2022/07/05 04:48:20;;;;;;;1.10;0.90;;;21.90;98.00;;;;;;5035643;28;20069;-73
2022/07/05 04:50:45;;;;;;;1.30;0.88;;;21.90;98.00;;;;;;5035667;28;20029;-73
2022/07/05 04:53:11;;;;;;;2.63;1.20;;;21.90;97.70;;;;;;5035331;28;20052;-73
2022/07/05 04:55:37;;;;;;;4.13;1.17;;;21.90;97.80;;;;;;5035596;28;20026;-73
2022/07/05 04:58:02;;;;;;;1.70;1.17;;;21.80;98.00;;;;;;5035362;28;20032;-72
2022/07/05 05:00:28;;;;;;;1.77;1.17;;;21.80;98.20;;;;;;5032910;28;20079;-73
2022/07/05 05:02:54;;;;;;;1.00;0.90;;;21.80;98.30;;;;;;5035363;28;20086;-72
2022/07/05 05:05:19;;;;;;;2.20;1.33;;;21.80;98.30;;;;;;5035104;28;20101;-71
2022/07/05 05:07:45;;;;;;;1.50;1.40;;;21.80;98.10;;;;;;5035202;28;20094;-70
2022/07/05 05:10:11;;;;;;;1.75;1.30;;;21.80;97.90;;;;;;5033817;28;20029;-71
2022/07/05 05:12:37;;;;;;;2.80;1.05;;;21.80;98.00;;;;;;5034063;28;20033;-71
2022/07/05 05:15:08;;;;;;;1.38;0.82;;;21.80;97.80;;;;;;5033696;28;20386;-71
2022/07/05 05:17:41;;;;;;;1.25;0.95;;;21.80;97.70;;;;;;5031457;28;20030;-71
2022/07/05 05:20:14;;;;;;;3.05;1.17;;;21.80;97.80;;;;;;5033423;28;20029;-71
2022/07/05 05:22:40;;;;;;;4.45;1.02;;;21.80;98.00;;;;;;5034697;28;20022;-71
2022/07/05 05:25:07;;;;;;;1.50;1.10;;;21.80;98.10;;;;;;5034749;28;20025;-71
2022/07/05 05:27:33;;;;;;;1.25;1.00;;;21.80;98.20;;;;;;5034830;28;20053;-71
2022/07/05 05:29:59;;;;;;;1.67;1.30;;;21.80;98.40;;;;;;5034712;28;20446;-71
2022/07/05 05:32:24;;;;;;;0.93;0.80;;;21.80;98.40;;;;;;5035101;28;20032;-71
2022/07/05 05:34:50;;;;;;;1.98;1.30;;;21.80;98.50;;;;;;5034764;28;20428;-72
2022/07/05 05:37:16;;;;;;;2.03;1.27;;;21.80;98.50;;;;;;5034293;28;20242;-72
2022/07/05 05:39:41;;;;;;;1.45;1.10;;;21.70;98.70;;;;;;5034841;28;20064;-72
2022/07/05 05:42:07;;;;;;;1.58;1.10;;;21.70;98.80;;;;;;5034603;28;20033;-72
2022/07/05 05:44:33;;;;;;;1.25;1.10;;;21.70;98.80;;;;;;5034486;28;20474;-72
2022/07/05 05:46:58;;;;;;;1.48;1.02;;;21.70;99.20;;;;;;5034426;28;20033;-71
2022/07/05 05:49:24;;;;;;;1.00;0.90;;;21.70;99.40;;;;;;5033871;28;20029;-71
2022/07/05 05:51:50;;;;;;;1.15;1.00;;;21.70;99.50;;;;;;5034582;28;20034;-71
2022/07/05 05:54:15;;;;;;;1.35;1.00;;;21.70;99.60;;;;;;5033762;28;20033;-71
2022/07/05 05:56:41;;;;;;;1.70;1.30;;;21.80;99.60;;;;;;5034534;28;20037;-71
2022/07/05 05:59:06;;;;;;;1.65;1.15;;;21.70;99.50;;;;;;5016868;28;20030;-72
2022/07/05 06:01:32;;;;;;;1.25;1.00;;;21.70;99.30;;;;;;5033831;28;20466;-73
2022/07/05 06:03:58;;;;;;;1.27;1.17;;;21.70;99.00;;;;;;5033944;28;20036;-69
2022/07/05 06:06:23;;;;;;;1.10;0.88;;;21.70;98.90;;;;;;5034235;28;20033;-73
2022/07/05 06:08:49;;;;;;;1.33;1.10;;;21.70;98.90;;;;;;5016296;28;20033;-71
2022/07/05 06:11:14;;;;;;;1.02;0.93;;;21.70;98.90;;;;;;5033499;28;20025;-70
2022/07/05 06:13:40;;;;;;;1.02;1.00;;;21.70;99.00;;;;;;5034079;28;20108;-72
2022/07/05 06:16:06;;;;;;;1.13;0.95;;;21.60;99.00;;;;;;5033664;28;20370;-72
2022/07/05 06:18:32;;;;;;;1.33;1.23;;;21.60;99.20;;;;;;5034066;28;20022;-72
2022/07/05 06:20:58;;;;;;;1.55;1.20;;;21.60;99.40;;;;;;5033781;28;20033;-72
2022/07/05 06:23:23;;;;;;;1.98;1.23;;;21.60;99.40;;;;;;5033399;28;20026;-72
2022/07/05 06:25:49;;;;;;;2.03;1.20;;;21.60;99.40;;;;;;5033511;28;20021;-72
2022/07/05 06:28:15;;;;;;;1.30;1.10;;;21.60;99.40;;;;;;5032986;28;20053;-72
2022/07/05 06:30:41;;;;;;;1.13;1.10;;;21.60;99.20;;;;;;5033861;28;20076;-72
2022/07/05 06:33:06;;;;;;;1.40;1.10;;;21.60;99.30;;;;;;5033255;28;20470;-72
2022/07/05 06:35:32;;;;;;;1.27;1.10;;;21.60;99.30;;;;;;5033569;28;20410;-72
2022/07/05 06:38:04;;;;;;;1.10;1.10;;;21.60;99.10;;;;;;5033709;28;20052;-73
2022/07/05 06:40:36;;;;;;;1.35;1.10;;;21.60;98.90;;;;;;5033623;28;20025;-72
2022/07/05 06:43:04;;;;;;;1.20;1.08;;;21.60;99.10;;;;;;5032978;28;20025;-72
2022/07/05 06:45:31;;;;;;;2.65;1.70;;;21.60;99.20;;;;;;5033333;28;20092;-74
2022/07/05 06:48:04;;;;;;;1.23;1.13;;;21.60;99.10;;;;;;5033306;28;20029;-72
2022/07/05 06:50:32;;;;;;;1.40;1.17;;;21.50;99.50;;;;;;5033063;28;20084;-73
2022/07/05 06:52:57;;;;;;;1.48;1.20;;;21.50;99.80;;;;;;5033413;28;20034;-73
2022/07/05 06:55:24;;;;;;;4.60;1.27;;;21.50;99.80;;;;;;5032694;28;20037;-73
2022/07/05 06:57:58;;;;;;;0.73;0.73;;;21.50;99.90;;;;;;5032595;28;20068;-73
2022/07/05 07:00:24;;;;;;;1.33;1.20;;;21.50;99.90;;;;;;5032735;28;20021;-72
2022/07/05 07:02:50;;;;;;;1.25;1.00;;;21.50;99.90;;;;;;5032978;28;20555;-73
2022/07/05 07:05:16;;;;;;;1.58;1.08;;;21.50;99.50;;;;;;5014693;28;20152;-72
2022/07/05 07:10:26;;;;;;;2.25;1.30;;;21.50;99.90;;;;;;5032901;28;20135;-73
2022/07/05 07:12:51;;;;;;;1.80;1.10;;;21.60;99.90;;;;;;5032776;28;20125;-73
2022/07/05 07:15:17;;;;;;;1.33;0.70;;;21.60;99.80;;;;;;5032590;28;20037;-73
2022/07/05 07:17:43;;;;;;;1.02;0.90;;;21.60;99.70;;;;;;5032517;28;20389;-72
2022/07/05 07:20:09;;;;;;;2.80;1.02;;;21.70;99.30;;;;;;5032275;28;20108;-72
2022/07/05 07:22:34;;;;;;;2.25;1.00;;;21.70;99.30;;;;;;5032641;28;20386;-72
2022/07/05 07:25:00;;;;;;;0.80;0.80;;;21.80;99.10;;;;;;5032817;28;20041;-71
2022/07/05 07:27:25;;;;;;;1.30;1.00;;;21.80;98.50;;;;;;5031696;28;20482;-71
2022/07/05 07:29:51;;;;;;;1.35;0.90;;;21.90;98.20;;;;;;5032607;28;20184;-72
2022/07/05 07:32:18;;;;;;;1.80;0.90;;;21.90;98.20;;;;;;5032440;28;20037;-72
2022/07/05 07:34:44;;;;;;;1.50;1.20;;;22.00;97.90;;;;;;5032553;28;20036;-72
2022/07/05 07:37:13;;;;;;;1.60;0.90;;;22.00;97.70;;;;;;5031579;28;20064;-72
2022/07/05 07:39:39;;;;;;;1.98;0.80;;;22.00;97.10;;;;;;5032809;28;20028;-72
2022/07/05 07:42:05;;;;;;;1.67;1.13;;;22.10;97.40;;;;;;5032110;28;20025;-72
2022/07/05 07:44:31;;;;;;;1.15;0.90;;;22.20;97.10;;;;;;5032755;28;20030;-73
2022/07/05 07:46:57;;;;;;;1.33;1.08;;;22.20;96.60;;;;;;5032369;28;20087;-73
2022/07/05 07:49:22;;;;;;;1.15;0.93;;;22.20;96.60;;;;;;5031435;28;20036;-72
2022/07/05 07:51:48;;;;;;;0.95;0.88;;;22.30;96.40;;;;;;5032736;28;20032;-72
2022/07/05 07:54:14;;;;;;;1.10;0.80;;;22.30;96.00;;;;;;5031983;28;20032;-72
2022/07/05 07:56:39;;;;;;;0.60;0.60;;;22.30;95.90;;;;;;5032178;28;20394;-72
2022/07/05 07:59:05;;;;;;;0.55;0.55;;;22.30;95.70;;;;;;5032221;28;20026;-73
2022/07/05 08:01:31;;;;;;;0.77;0.75;;;22.40;95.80;;;;;;5032468;28;20036;-73
2022/07/05 08:03:57;;;;;;;0.70;0.70;;;22.40;95.70;;;;;;5032493;28;20123;-72
2022/07/05 08:06:22;;;;;;;1.48;1.00;;;22.40;95.70;;;;;;5031953;28;20483;-73
2022/07/05 08:08:48;;;;;;;0.50;0.50;;;22.40;95.70;;;;;;5034487;28;20454;-72
2022/07/05 08:11:15;;;;;;;0.70;0.70;;;22.40;95.10;;;;;;5035780;28;20029;-71
2022/07/05 08:13:42;;;;;;;0.60;0.60;;;22.50;95.20;;;;;;5036027;28;20135;-72
2022/07/05 08:16:08;;;;;;;0.57;0.57;;;22.50;95.10;;;;;;5035762;28;20028;-71
2022/07/05 08:21:30;;;;;;;2.15;0.93;;;22.50;95.20;;;;;;5035736;28;20032;-73
2022/07/05 08:24:03;;;;;;;0.50;0.50;;;22.50;95.50;;;;;;5036297;28;20520;-72
2022/07/05 08:26:30;;;;;;;0.60;0.60;;;22.50;95.20;;;;;;5035767;28;20418;-70
2022/07/05 08:29:01;;;;;;;1.27;1.00;;;22.50;95.10;;;;;;5036635;28;20029;-73
2022/07/05 08:31:27;;;;;;;1.30;0.87;;;22.50;94.60;;;;;;5035808;28;20042;-72
2022/07/05 08:33:53;;;;;;;0.60;0.60;;;22.40;94.70;;;;;;5036065;28;20080;-72
2022/07/05 08:36:19;;;;;;;1.13;0.80;;;22.40;95.10;;;;;;5035283;28;20029;-73
2022/07/05 08:38:44;;;;;;;1.13;0.75;;;22.40;95.00;;;;;;5036116;28;20040;-73
2022/07/05 08:41:11;;;;;;;0.52;0.52;;;22.30;95.10;;;;;;5035973;28;20108;-70
2022/07/05 08:43:40;;;;;;;0.60;0.60;;;22.20;95.20;;;;;;5036382;28;20045;-73
2022/07/05 08:46:09;;;;;;;0.85;0.70;;;22.20;95.60;;;;;;5035926;28;20088;-73
2022/07/05 08:48:42;;;;;;;0.95;0.80;;;22.20;95.90;;;;;;5035753;28;20037;-72
2022/07/05 08:51:23;;;;;;;0.68;0.63;;;22.20;96.30;;;;;;5036427;28;20376;-73
2022/07/05 08:53:50;;;;;;;;;;;22.20;96.40;;;;;;5036417;28;20025;-72
2022/07/05 08:56:16;;;;;;;0.73;0.73;;;22.20;96.50;;;;;;5035117;28;19905;-72
2022/07/05 08:58:42;;;;;;;3.15;1.08;;;22.20;96.40;;;;;;5035765;28;20025;-72
2022/07/05 09:01:09;;;;;;;0.70;0.70;;;22.30;96.30;;;;;;5035802;28;20033;-71
2022/07/05 09:03:42;;;;;;;0.80;0.80;;;22.20;96.10;;;;;;5035321;28;20490;-72
2022/07/05 09:06:09;;;;;;;1.67;0.75;;;22.20;96.60;;;;;;5035548;28;20029;-72
2022/07/05 09:08:40;;;;;;;1.20;1.10;;;22.20;96.30;;;;;;5034893;28;20049;-72
2022/07/05 09:11:10;;;;;;;0.80;0.80;;;22.20;96.40;;;;;;5035608;28;20025;-73
2022/07/05 09:13:38;;;;;;;0.98;0.80;;;22.20;96.50;;;;;;5035414;28;20034;-73
2022/07/05 09:16:04;;;;;;;0.75;0.75;;;22.20;96.10;;;;;;5035092;28;20033;-73
2022/07/05 09:18:46;;;;;;;0.73;0.73;;;22.10;96.40;;;;;;5035053;28;20123;-72
2022/07/05 09:21:19;;;;;;;1.20;0.90;;;22.10;96.30;;;;;;5034287;28;20127;-70
2022/07/05 09:24:03;;;;;;;1.30;1.15;;;22.10;96.40;;;;;;5035393;28;20066;-73
2022/07/05 09:26:32;;;;;;;2.38;0.93;;;22.10;96.20;;;;;;5034560;28;20104;-72
2022/07/05 09:28:58;;;;;;;0.70;0.70;;;22.00;96.50;;;;;;5035298;28;20029;-72
2022/07/05 09:31:34;;;;;;;4.45;1.00;;;22.00;96.60;;;;;;5034808;28;20025;-72
2022/07/05 09:34:13;;;;;;;0.90;0.90;;;22.00;96.70;;;;;;5035019;28;20022;-73
2022/07/05 09:36:51;;;;;;;1.05;1.00;;;21.90;96.80;;;;;;5035131;28;20041;-72
2022/07/05 09:39:37;;;;;;;1.27;0.98;;;21.80;96.90;;;;;;5034285;28;20026;-72
2022/07/05 09:42:09;;;;;;;0.80;0.77;;;21.80;97.10;;;;;;5014794;28;20034;-72
2022/07/05 09:44:42;;;;;;;2.50;0.90;;;21.80;97.20;;;;;;5014818;28;20026;-73
2022/07/05 09:47:12;;;;;;;1.88;0.90;;;21.70;97.30;;;;;;5015158;28;20037;-73
2022/07/05 09:49:43;;;;;;;0.73;0.73;;;21.70;97.70;;;;;;5015062;28;20041;-72
2022/07/05 09:52:09;;;;;;;;;;;21.60;98.10;;;;;;5015421;28;20037;-72
2022/07/05 09:54:35;;;;;;;1.25;1.02;;;21.60;98.60;;;;;;5014673;28;20278;-72
2022/07/05 09:57:00;;;;;;;0.90;0.90;;;21.50;99.20;;;;;;5034412;28;20473;-72
2022/07/05 09:59:26;;;;;;;1.15;0.90;;;21.40;99.70;;;;;;5034387;28;20040;-72
2022/07/05 10:01:52;;;;;;;0.70;0.70;;;21.40;99.90;;;;;;5034798;28;20021;-73
2022/07/05 10:04:18;;;;;;;2.30;0.85;;;21.30;99.90;;;;;;5034181;28;20041;-72
2022/07/05 10:06:45;;;;;;;1.15;0.90;;;21.30;99.90;;;;;;5034359;28;20080;-72
2022/07/05 10:09:11;;;;;;;1.15;1.05;;;21.30;99.90;;;;;;5034590;28;20044;-73
2022/07/05 10:11:43;;;;;;;1.38;0.98;;;21.30;99.90;;;;;;5033894;28;20040;-72
2022/07/05 10:14:14;;;;;;;2.55;1.20;;;21.20;99.90;;;;;;5034193;28;20029;-72
2022/07/05 10:16:40;;;;;;;1.23;0.70;;;21.10;99.90;;;;;;5033813;28;20120;-72
2022/07/05 10:19:13;;;;;;;1.13;1.00;;;21.10;99.90;;;;;;5034219;28;20474;-72
2022/07/05 10:21:40;;;;;;;1.55;1.10;;;21.00;99.90;;;;;;5033905;28;20040;-72
2022/07/05 10:24:06;;;;;;;1.38;1.10;;;21.00;99.90;;;;;;5034125;28;20038;-72
2022/07/05 10:26:33;;;;;;;1.05;0.93;;;21.00;99.90;;;;;;5033133;28;20120;-72
2022/07/05 10:29:00;;;;;;;1.27;1.08;;;21.00;99.90;;;;;;5034236;28;20026;-72
2022/07/05 10:31:28;;;;;;;3.63;1.17;;;21.00;99.90;;;;;;5033203;28;20045;-72
2022/07/05 10:33:55;;;;;;;4.05;1.10;;;21.10;99.90;;;;;;5033731;28;20025;-72
2022/07/05 10:36:21;;;;;;;1.25;1.00;;;21.20;99.90;;;;;;5033561;28;20109;-72
2022/07/05 10:38:47;;;;;;;1.08;0.93;;;21.20;99.90;;;;;;5034067;28;20557;-72
2022/07/05 10:41:20;;;;;;;1.35;0.90;;;21.20;99.90;;;;;;5033987;28;20480;-72
2022/07/05 10:43:51;;;;;;;1.33;0.90;;;21.20;99.90;;;;;;5033490;28;20075;-72
2022/07/05 10:46:34;;;;;;;1.58;1.05;;;21.20;99.90;;;;;;5033893;28;20420;-73
2022/07/05 10:49:17;;;;;;;1.05;0.90;;;21.20;99.90;;;;;;5033728;28;20033;-72
2022/07/05 10:51:43;;;;;;;1.00;0.95;;;21.20;99.90;;;;;;5033296;28;20080;-72
2022/07/05 10:54:10;;;;;;;1.25;1.00;;;21.20;99.90;;;;;;5033631;28;20025;-72
2022/07/05 10:56:38;;;;;;;1.38;1.10;;;21.20;99.90;;;;;;5033249;28;20068;-72
2022/07/05 10:59:09;;;;;;;3.20;0.95;;;21.10;99.90;;;;;;5033750;28;20052;-73
2022/07/05 11:01:37;;;;;;;1.27;1.17;;;21.10;99.90;;;;;;5033089;28;20083;-71
2022/07/05 11:04:03;;;;;;;1.08;0.88;;;21.10;99.90;;;;;;5033358;28;20033;-72
2022/07/05 11:06:38;;;;;;;2.40;1.02;;;21.00;99.90;;;;;;5032564;28;20030;-72
2022/07/05 11:09:03;;;;;;;1.35;1.10;;;21.00;99.90;;;;;;5033427;28;20100;-72
2022/07/05 11:11:30;;;;;;;1.13;0.93;;;21.00;99.90;;;;;;5033005;28;20156;-72
2022/07/05 11:14:00;;;;;;;1.90;1.20;;;21.00;99.90;;;;;;5033001;28;20032;-72
2022/07/05 11:16:32;;;;;;;2.63;1.20;;;21.00;99.90;;;;;;5032564;28;20021;-72
2022/07/05 11:19:11;;;;;;;1.10;0.88;;;21.00;99.90;;;;;;5033586;28;20037;-73
2022/07/05 11:21:38;;;;;;;0.80;0.80;;;21.00;99.90;;;;;;5032800;28;20029;-73
2022/07/05 11:24:26;;;;;;;1.10;1.00;;;21.00;99.90;;;;;;5033139;28;20108;-72
2022/07/05 11:26:53;;;;;;;1.17;1.08;;;21.00;99.90;;;;;;5032745;28;20053;-72
2022/07/05 11:29:43;;;;;;;0.90;0.90;;;21.00;99.90;;;;;;5033157;28;20140;-73
2022/07/05 11:32:14;;;;;;;1.58;1.23;;;20.90;99.90;;;;;;5033015;28;20031;-73
2022/07/05 11:34:44;;;;;;;1.00;1.00;;;21.00;99.90;;;;;;5032609;28;20370;-72
2022/07/05 11:37:19;;;;;;;1.80;1.42;;;21.00;99.90;;;;;;5032902;28;20104;-72
2022/07/05 11:39:46;;;;;;;1.67;1.10;;;21.00;99.90;;;;;;5032289;28;20600;-71
2022/07/05 11:42:22;;;;;;;1.95;1.35;;;21.00;99.90;;;;;;5032595;28;20159;-73
2022/07/05 11:44:52;;;;;;;1.30;0.95;;;21.00;99.90;;;;;;5032900;28;20033;-71
2022/07/05 11:47:17;;;;;;;1.73;1.20;;;21.10;99.90;;;;;;5032208;28;20132;-73
2022/07/05 11:49:59;;;;;;;3.67;1.40;;;21.10;99.90;;;;;;5032484;28;20512;-71
2022/07/05 11:52:35;;;;;;;2.05;1.35;;;21.10;99.90;;;;;;5032523;28;20497;-72
2022/07/05 11:55:06;;;;;;;2.03;1.30;;;21.20;99.90;;;;;;5032829;28;20064;-72
2022/07/05 11:57:31;;;;;;;;;;;21.20;99.90;;;;;;5032290;28;20042;-71
2022/07/05 11:59:57;;;;;;;1.50;1.25;;;21.30;99.90;;;;;;5032573;28;20285;-72
2022/07/05 12:02:23;;;;;;;1.85;1.00;;;21.30;99.90;;;;;;5032517;28;20033;-71
2022/07/05 12:04:56;;;;;;;1.85;1.30;;;21.30;99.80;;;;;;5032984;28;20025;-71
2022/07/05 12:07:25;;;;;;;1.48;1.10;;;21.30;99.20;;;;;;5032399;28;20033;-72
2022/07/05 12:12:47;;;;;;;1.95;1.20;;;21.40;99.10;;;;;;5032103;28;20079;-71
2022/07/05 12:15:19;;;;;;;1.40;1.30;;;21.50;99.30;;;;;;5032704;28;20025;-72
2022/07/05 12:17:47;;;;;;;1.92;1.30;;;21.50;98.90;;;;;;5014541;28;20430;-73
2022/07/05 12:20:14;;;;;;;1.75;1.17;;;21.60;99.00;;;;;;5032549;28;20033;-73
2022/07/05 12:22:40;;;;;;;2.08;1.17;;;21.60;98.80;;;;;;5031850;28;20079;-71
2022/07/05 12:25:07;;;;;;;2.60;1.23;;;21.70;98.30;;;;;;5032531;28;20474;-72
2022/07/05 12:27:36;;;;;;;1.30;1.20;;;21.80;97.50;;;;;;5031801;28;20183;-71
2022/07/05 12:30:03;;;;;;;3.05;1.50;;;21.80;97.70;;;;;;5032337;28;20037;-72
2022/07/05 12:32:30;;;;;;;2.08;1.60;;;21.90;98.10;;;;;;5031988;28;20440;-72
2022/07/05 12:34:56;;;;;;;1.35;1.25;;;22.00;98.30;;;;;;5032258;28;20375;-72
2022/07/05 12:37:28;;;;;;;1.95;1.30;;;22.10;98.50;;;;;;5032327;28;20080;-72
2022/07/05 12:40:07;;;;;;;1.45;1.35;;;22.20;98.90;;;;;;5032371;28;20062;-71
2022/07/05 12:42:38;;;;;;;1.40;1.30;;;22.30;98.60;;;;;;5031971;28;20034;-72
2022/07/05 12:45:11;;;;;;;1.42;1.23;;;22.40;98.10;;;;;;5032464;28;20045;-72
2022/07/05 12:47:54;;;;;;;1.23;1.13;;;22.50;97.70;;;;;;5031730;28;20505;-73
2022/07/05 12:50:21;;;;;;;1.60;1.40;;;22.50;97.50;;;;;;5032273;28;20041;-73
2022/07/05 12:58:46;;;;;;;1.60;1.50;;;22.70;97.00;;;;;;5035427;28;20036;-72
2022/07/05 13:01:24;;;;;;;1.30;1.20;;;22.70;96.50;;;;;;5035731;28;20478;-73
2022/07/05 13:04:11;;;;;;;1.80;1.35;;;22.80;96.40;;;;;;5035438;28;20446;-73